createdAt,value
2022-12-06T00:01:39.845Z,14.15
2022-12-06T00:06:53.794Z,14.35
2022-12-06T00:11:57.616Z,14.63
2022-12-06T00:17:00.303Z,12.25
2022-12-06T00:22:03.013Z,23.33
2022-12-06T00:27:05.665Z,16.88
2022-12-06T00:32:08.485Z,23.63
2022-12-06T00:37:11.243Z,17.63
2022-12-06T00:42:14.090Z,17.15
2022-12-06T00:47:16.779Z,16.80
2022-12-06T00:52:19.563Z,21.88
2022-12-06T00:57:22.182Z,19.88
2022-12-06T01:02:24.808Z,16.27
2022-12-06T01:07:27.435Z,21.33
2022-12-06T01:12:30.116Z,17.67
2022-12-06T01:17:32.876Z,22.30
2022-12-06T01:22:35.802Z,33.25
2022-12-06T01:27:38.479Z,23.25
2022-12-06T01:32:41.111Z,23.20
2022-12-06T01:37:43.798Z,26.48
2022-12-06T01:42:46.507Z,28.52
2022-12-06T01:47:49.458Z,20.88
2022-12-06T01:52:54.458Z,26.27
2022-12-06T01:58:00.062Z,9.57
2022-12-06T02:03:04.023Z,21.38
2022-12-06T02:08:10.144Z,27.90
2022-12-06T02:13:12.888Z,16.35
2022-12-06T02:18:20.406Z,18.08
2022-12-06T02:23:50.823Z,28.58
2022-12-06T02:29:12.273Z,31.17
2022-12-06T02:34:37.613Z,24.75
2022-12-06T02:40:06.290Z,25.30
2022-12-06T02:45:16.465Z,35.03
2022-12-06T02:50:22.136Z,22.30
2022-12-06T02:55:25.384Z,30.05
2022-12-06T03:00:35.258Z,24.55
2022-12-06T03:06:01.676Z,12.80
2022-12-06T03:11:04.496Z,21.98
2022-12-06T03:16:28.961Z,22.38
2022-12-06T03:21:40.330Z,26.17
2022-12-06T03:26:46.538Z,27.58
2022-12-06T03:31:50.057Z,20.70
2022-12-06T03:36:53.790Z,14.30
2022-12-06T03:41:59.060Z,29.58
2022-12-06T03:47:31.074Z,24.33
2022-12-06T03:52:34.455Z,27.17
2022-12-06T03:57:37.186Z,15.73
2022-12-06T04:02:39.813Z,21.58
2022-12-06T04:07:42.583Z,24.63
2022-12-06T04:13:03.399Z,20.15
2022-12-06T04:18:11.315Z,11.02
2022-12-06T04:23:13.952Z,25.55
2022-12-06T04:28:35.062Z,27.80
2022-12-06T04:33:56.369Z,22.63
2022-12-06T04:38:59.148Z,12.27
2022-12-06T04:44:01.835Z,22.08
2022-12-06T04:49:04.871Z,24.13
2022-12-06T04:54:07.573Z,18.92
2022-12-06T04:59:10.401Z,23.60
2022-12-06T05:04:13.271Z,22.83
2022-12-06T05:09:16.436Z,19.52
2022-12-06T05:14:19.066Z,20.50
2022-12-06T05:19:21.867Z,11.75
2022-12-06T05:24:24.608Z,25.65
2022-12-06T05:29:27.227Z,14.57
2022-12-06T05:34:29.876Z,26.33
2022-12-06T05:39:32.746Z,17.80
2022-12-06T05:44:35.456Z,22.77
2022-12-06T05:49:38.156Z,24.00
2022-12-06T05:54:40.767Z,16.83
2022-12-06T05:59:43.535Z,13.00
2022-12-06T06:04:46.171Z,25.05
2022-12-06T06:09:48.844Z,17.77
2022-12-06T06:14:52.192Z,19.25
2022-12-06T06:19:54.869Z,23.95
2022-12-06T06:24:57.559Z,16.15
2022-12-06T06:35:03.996Z,25.67
2022-12-06T06:40:07.193Z,20.88
2022-12-06T06:45:10.413Z,19.27
2022-12-06T06:50:13.237Z,18.13
2022-12-06T06:55:15.922Z,22.92
2022-12-06T07:05:21.516Z,19.42
2022-12-06T07:15:28.495Z,14.60
2022-12-06T07:20:31.187Z,22.38
2022-12-06T07:25:33.791Z,23.90
2022-12-06T07:30:36.548Z,19.10
2022-12-06T07:41:04.990Z,28.92
2022-12-06T07:46:12.091Z,24.92
2022-12-06T07:51:14.828Z,25.15
2022-12-06T07:56:17.496Z,26.25
2022-12-06T08:01:20.429Z,19.10
2022-12-06T08:06:23.840Z,19.35
2022-12-06T08:11:26.837Z,21.38
2022-12-06T08:16:29.558Z,16.48
2022-12-06T08:26:35.934Z,32.42
2022-12-06T08:31:38.736Z,33.75
2022-12-06T08:36:41.804Z,17.80
2022-12-06T08:41:58.446Z,26.33
2022-12-06T08:47:02.269Z,29.77
2022-12-06T08:52:05.317Z,21.20
2022-12-06T08:57:08.240Z,24.42
2022-12-06T09:07:16.456Z,12.13
2022-12-06T09:12:19.168Z,24.13
2022-12-06T09:17:21.924Z,31.67
2022-12-06T09:22:24.733Z,28.73
2022-12-06T09:27:30.490Z,30.95
2022-12-06T09:32:33.182Z,30.35
2022-12-06T09:37:35.875Z,29.65
2022-12-06T09:43:01.779Z,28.63
2022-12-06T09:48:53.001Z,20.08
2022-12-06T09:54:20.159Z,26.08
2022-12-06T09:59:32.176Z,22.38
2022-12-06T10:04:59.019Z,24.83
2022-12-06T10:10:17.713Z,21.77
2022-12-06T10:15:20.478Z,31.10
2022-12-06T10:20:25.913Z,25.58
2022-12-06T10:25:39.637Z,26.40
2022-12-06T10:30:52.601Z,24.67
2022-12-06T10:36:04.212Z,23.27
2022-12-06T10:41:34.892Z,23.83
2022-12-06T10:46:56.359Z,20.55
2022-12-06T10:52:05.051Z,21.63
2022-12-06T10:57:14.655Z,20.58
2022-12-06T11:02:23.458Z,19.50
2022-12-06T11:07:31.510Z,22.27
2022-12-06T11:12:36.042Z,17.40
2022-12-06T11:17:40.720Z,23.67
2022-12-06T11:23:06.413Z,25.45
2022-12-06T11:28:32.396Z,23.48
2022-12-06T11:33:35.347Z,22.00
2022-12-06T11:38:41.144Z,12.43
2022-12-06T11:43:45.881Z,24.30
2022-12-06T11:48:48.766Z,19.98
2022-12-06T11:54:07.580Z,10.98
2022-12-06T11:59:25.561Z,22.00
2022-12-06T12:04:44.510Z,12.60
2022-12-06T12:10:01.053Z,13.40
2022-12-06T12:15:04.069Z,14.95
2022-12-06T12:20:08.686Z,21.02
2022-12-06T12:25:35.447Z,21.90
2022-12-06T12:30:41.362Z,26.67
2022-12-06T12:35:49.674Z,24.08
2022-12-06T12:40:54.616Z,21.25
2022-12-06T12:46:12.427Z,24.42
2022-12-06T12:51:28.410Z,21.20
2022-12-06T12:56:36.646Z,12.80
2022-12-06T13:02:05.831Z,17.27
2022-12-06T13:07:30.706Z,23.00
2022-12-06T13:12:42.940Z,21.08
2022-12-06T13:17:59.632Z,18.57
2022-12-06T13:23:09.080Z,24.63
2022-12-06T13:28:23.695Z,17.13
2022-12-06T13:33:27.884Z,17.13
2022-12-06T13:38:38.661Z,18.60
2022-12-06T13:43:41.349Z,10.73
2022-12-06T13:49:00.086Z,13.05
2022-12-06T13:54:05.674Z,17.65
2022-12-06T13:59:15.603Z,15.65
2022-12-06T14:14:41.235Z,17.15
2022-12-06T14:19:49.683Z,15.35
2022-12-06T14:25:01.176Z,7.10
2022-12-06T14:30:14.981Z,17.17
2022-12-06T14:35:29.722Z,14.60
2022-12-06T14:40:56.687Z,11.10
2022-12-06T14:46:01.622Z,12.45
2022-12-06T14:51:04.670Z,15.85
2022-12-06T15:01:20.486Z,7.70
2022-12-06T15:06:24.667Z,7.60
2022-12-06T15:11:48.504Z,13.48
2022-12-06T15:17:11.599Z,18.30
2022-12-06T15:22:21.361Z,15.60
2022-12-06T15:27:28.302Z,18.67
2022-12-06T15:32:31.056Z,12.85
2022-12-06T15:37:43.973Z,21.13
2022-12-06T15:42:51.590Z,12.48
2022-12-06T15:47:54.580Z,17.70
2022-12-06T15:57:59.795Z,8.18
2022-12-06T16:03:03.307Z,10.70
2022-12-06T16:08:08.907Z,8.68
2022-12-06T16:13:25.021Z,10.77
2022-12-06T16:18:27.752Z,15.80
2022-12-06T16:24:12.689Z,14.25
2022-12-06T16:29:25.356Z,13.68
2022-12-06T16:34:29.941Z,10.45
2022-12-06T16:39:34.205Z,12.73
2022-12-06T16:44:58.130Z,15.23
2022-12-06T16:50:01.057Z,12.93
2022-12-06T17:00:07.775Z,18.80
2022-12-06T17:05:21.004Z,11.98
2022-12-06T17:10:23.809Z,16.70
2022-12-06T17:15:26.468Z,20.02
2022-12-06T17:20:29.300Z,12.32
2022-12-06T17:25:31.927Z,13.10
2022-12-06T17:30:34.953Z,14.95
2022-12-06T17:35:37.578Z,14.52
2022-12-06T17:40:40.407Z,18.73
2022-12-06T17:45:43.082Z,12.30
2022-12-06T17:50:45.789Z,12.18
2022-12-06T17:55:48.516Z,21.02
2022-12-06T18:00:51.338Z,15.40
2022-12-06T18:05:54.854Z,18.95
2022-12-06T18:10:58.747Z,21.80
2022-12-06T18:16:01.637Z,11.38
2022-12-06T18:21:08.427Z,16.25
2022-12-06T18:26:14.779Z,12.10
2022-12-06T18:31:17.530Z,15.63
2022-12-06T18:36:20.995Z,12.25
2022-12-06T18:41:23.817Z,18.52
2022-12-06T18:46:27.222Z,10.60
2022-12-06T18:51:32.109Z,18.67
2022-12-06T18:56:35.478Z,15.90
2022-12-06T19:01:39.255Z,13.52
2022-12-06T19:06:43.197Z,16.23
2022-12-06T19:11:46.566Z,10.98
2022-12-06T19:16:51.233Z,16.17
2022-12-06T19:21:55.164Z,14.52
2022-12-06T19:27:00.938Z,10.80
2022-12-06T19:32:03.596Z,8.63
2022-12-06T19:37:06.267Z,5.78
2022-12-06T19:42:27.997Z,12.43
2022-12-06T19:47:30.737Z,10.13
2022-12-06T19:52:33.349Z,13.80
2022-12-06T19:57:36.230Z,11.75
2022-12-06T20:02:38.936Z,16.75
2022-12-06T20:07:41.706Z,11.55
2022-12-06T20:12:44.371Z,14.18
2022-12-06T20:17:47.193Z,7.13
2022-12-06T20:22:49.816Z,14.25
2022-12-06T20:27:52.560Z,9.75
2022-12-06T20:32:55.318Z,8.90
2022-12-06T20:37:58.116Z,10.00
2022-12-06T20:43:00.739Z,8.73
2022-12-06T20:48:03.434Z,7.55
2022-12-06T20:53:06.151Z,15.05
2022-12-06T20:58:08.786Z,12.10
2022-12-06T21:03:11.485Z,13.52
2022-12-06T21:08:14.310Z,9.35
2022-12-06T21:13:16.997Z,11.65
2022-12-06T21:18:20.055Z,9.20
2022-12-06T21:28:25.422Z,12.50
2022-12-06T21:33:28.036Z,11.73
2022-12-06T21:38:31.466Z,10.65
2022-12-06T21:43:35.453Z,5.28
2022-12-06T21:48:38.478Z,11.15
2022-12-06T21:53:41.318Z,10.38
2022-12-06T21:58:44.891Z,10.80
2022-12-06T22:03:49.006Z,11.43
2022-12-06T22:08:57.887Z,12.48
2022-12-06T22:14:01.427Z,8.77
2022-12-06T22:19:04.419Z,8.48
2022-12-06T22:24:07.421Z,7.13
2022-12-06T22:29:10.281Z,13.25
2022-12-06T22:34:13.122Z,11.10
2022-12-06T22:39:15.755Z,14.02
2022-12-06T22:44:19.861Z,12.48
2022-12-06T22:49:22.579Z,9.02
2022-12-06T22:54:25.367Z,7.03
2022-12-06T22:59:28.014Z,6.97
2022-12-06T23:04:30.793Z,10.68
2022-12-06T23:09:33.635Z,8.50
2022-12-06T23:14:36.554Z,8.02
2022-12-06T23:19:39.105Z,10.30
2022-12-06T23:24:41.921Z,7.78
2022-12-06T23:29:44.706Z,10.30
2022-12-06T23:34:47.387Z,9.82
2022-12-06T23:39:50.020Z,10.57
2022-12-06T23:44:52.954Z,10.55
2022-12-06T23:49:55.711Z,7.53
2022-12-06T23:54:59.835Z,8.48
